< < Back
Terminal Aerodrome Forecast


Current Version              Previous Versions:   1  2  3  4  5  6  7  8  9  

Terminal Aerodrome Forecast

341
FTUS42 KTAE 152300
TAFVLD
TAF
KVLD 152322Z 1600/1624 33012G18KT P6SM BKN020
     FM160200 35010KT P6SM SKC
     FM161500 05013G20KT P6SM SKC=



Latest METAR

870
SAUS70 KWBC 160400 RRC
MTRVLD
METAR KVLD 160353Z AUTO VRB03KT 10SM CLR 09/03 A3007 RMK AO2 SLP190
T00940028


USA.gov is the U.S. government's official web portal to all federal, state and local government web resources and services.